sensor_id;sensor_type;location;lat;lon;timestamp;pressure;altitude;pressure_sealevel;temperature;humidity
31873;BME280;22407;42.820;23.374;2023-12-14T00:01:50;94802.13;;;3.58;97.98
31873;BME280;22407;42.820;23.374;2023-12-14T00:04:16;94785.97;;;3.16;100.00
31873;BME280;22407;42.820;23.374;2023-12-14T00:06:41;94786.88;;;3.30;99.30
31873;BME280;22407;42.820;23.374;2023-12-14T00:09:07;94792.09;;;3.45;98.74
31873;BME280;22407;42.820;23.374;2023-12-14T00:11:40;94785.22;;;3.11;99.43
31873;BME280;22407;42.820;23.374;2023-12-14T00:14:06;94794.41;;;3.28;98.72
31873;BME280;22407;42.820;23.374;2023-12-14T00:16:32;94801.56;;;3.04;98.92
31873;BME280;22407;42.820;23.374;2023-12-14T00:18:57;94793.63;;;2.99;99.67
31873;BME280;22407;42.820;23.374;2023-12-14T00:21:23;94805.88;;;3.00;99.67
31873;BME280;22407;42.820;23.374;2023-12-14T00:23:48;94805.09;;;3.00;99.72
31873;BME280;22407;42.820;23.374;2023-12-14T00:26:14;94795.34;;;3.14;99.85
31873;BME280;22407;42.820;23.374;2023-12-14T00:28:39;94794.53;;;3.13;100.00
31873;BME280;22407;42.820;23.374;2023-12-14T00:31:05;94782.91;;;2.99;100.00
31873;BME280;22407;42.820;23.374;2023-12-14T00:33:31;94786.63;;;3.32;100.00
31873;BME280;22407;42.820;23.374;2023-12-14T00:35:57;94770.94;;;2.92;100.00
31873;BME280;22407;42.820;23.374;2023-12-14T00:38:23;94772.31;;;2.89;100.00
31873;BME280;22407;42.820;23.374;2023-12-14T00:40:48;94783.25;;;2.88;100.00
31873;BME280;22407;42.820;23.374;2023-12-14T00:43:14;94778.06;;;2.73;100.00
31873;BME280;22407;42.820;23.374;2023-12-14T00:45:39;94771.31;;;3.09;100.00
31873;BME280;22407;42.820;23.374;2023-12-14T00:48:06;94780.06;;;2.86;100.00
31873;BME280;22407;42.820;23.374;2023-12-14T00:50:32;94789.25;;;3.08;100.00
31873;BME280;22407;42.820;23.374;2023-12-14T00:52:57;94797.38;;;2.93;100.00
31873;BME280;22407;42.820;23.374;2023-12-14T00:55:23;94792.31;;;3.20;98.74
31873;BME280;22407;42.820;23.374;2023-12-14T00:57:49;94778.22;;;2.81;99.63
31873;BME280;22407;42.820;23.374;2023-12-14T01:00:14;94777.16;;;2.82;99.68
31873;BME280;22407;42.820;23.374;2023-12-14T01:02:40;94795.91;;;2.77;99.19
31873;BME280;22407;42.820;23.374;2023-12-14T01:05:06;94786.16;;;2.58;100.00
31873;BME280;22407;42.820;23.374;2023-12-14T01:07:31;94789.72;;;2.49;100.00
31873;BME280;22407;42.820;23.374;2023-12-14T01:09:57;94793.66;;;2.56;100.00
31873;BME280;22407;42.820;23.374;2023-12-14T01:12:23;94799.13;;;2.79;100.00
31873;BME280;22407;42.820;23.374;2023-12-14T01:14:48;94790.50;;;2.49;100.00
31873;BME280;22407;42.820;23.374;2023-12-14T01:17:14;94790.22;;;2.51;100.00
31873;BME280;22407;42.820;23.374;2023-12-14T01:19:40;94791.88;;;2.42;100.00
31873;BME280;22407;42.820;23.374;2023-12-14T01:22:06;94781.72;;;2.44;100.00
31873;BME280;22407;42.820;23.374;2023-12-14T01:24:31;94790.06;;;2.37;100.00
31873;BME280;22407;42.820;23.374;2023-12-14T01:26:57;94793.47;;;2.48;100.00
31873;BME280;22407;42.820;23.374;2023-12-14T01:29:22;94796.78;;;2.68;100.00
31873;BME280;22407;42.820;23.374;2023-12-14T01:31:48;94786.53;;;2.42;100.00
31873;BME280;22407;42.820;23.374;2023-12-14T01:34:13;94793.66;;;2.18;100.00
31873;BME280;22407;42.820;23.374;2023-12-14T01:36:41;94789.94;;;2.14;100.00
31873;BME280;22407;42.820;23.374;2023-12-14T01:39:06;94780.06;;;2.14;100.00
31873;BME280;22407;42.820;23.374;2023-12-14T01:41:32;94784.94;;;2.41;100.00
31873;BME280;22407;42.820;23.374;2023-12-14T01:43:57;94787.25;;;2.19;100.00
31873;BME280;22407;42.820;23.374;2023-12-14T01:46:23;94780.13;;;2.48;100.00
31873;BME280;22407;42.820;23.374;2023-12-14T01:48:58;94794.38;;;2.28;100.00
31873;BME280;22407;42.820;23.374;2023-12-14T01:51:23;94768.03;;;2.17;100.00
31873;BME280;22407;42.820;23.374;2023-12-14T01:53:49;94783.56;;;2.05;100.00
31873;BME280;22407;42.820;23.374;2023-12-14T01:56:14;94773.59;;;2.20;100.00
31873;BME280;22407;42.820;23.374;2023-12-14T01:58:40;94770.75;;;2.02;100.00
31873;BME280;22407;42.820;23.374;2023-12-14T02:03:51;94772.13;;;2.04;100.00
31873;BME280;22407;42.820;23.374;2023-12-14T02:06:17;94763.72;;;2.21;99.96
31873;BME280;22407;42.820;23.374;2023-12-14T02:08:43;94766.59;;;1.86;100.00
31873;BME280;22407;42.820;23.374;2023-12-14T02:11:09;94762.81;;;1.92;100.00
31873;BME280;22407;42.820;23.374;2023-12-14T02:13:34;94774.78;;;2.04;99.97
31873;BME280;22407;42.820;23.374;2023-12-14T02:16:00;94771.28;;;2.04;100.00
31873;BME280;22407;42.820;23.374;2023-12-14T02:18:25;94758.50;;;2.01;99.73
31873;BME280;22407;42.820;23.374;2023-12-14T02:20:51;94769.75;;;1.98;100.00
31873;BME280;22407;42.820;23.374;2023-12-14T02:23:17;94771.94;;;1.86;100.00
31873;BME280;22407;42.820;23.374;2023-12-14T02:25:43;94768.69;;;1.94;100.00
31873;BME280;22407;42.820;23.374;2023-12-14T02:28:08;94770.75;;;2.02;100.00
31873;BME280;22407;42.820;23.374;2023-12-14T02:30:34;94766.81;;;1.94;100.00
31873;BME280;22407;42.820;23.374;2023-12-14T02:32:59;94758.00;;;1.99;100.00
31873;BME280;22407;42.820;23.374;2023-12-14T02:35:25;94756.66;;;1.96;100.00
31873;BME280;22407;42.820;23.374;2023-12-14T02:37:50;94753.19;;;1.96;100.00
31873;BME280;22407;42.820;23.374;2023-12-14T02:40:16;94754.34;;;2.28;99.71
31873;BME280;22407;42.820;23.374;2023-12-14T02:42:42;94738.72;;;2.07;100.00
31873;BME280;22407;42.820;23.374;2023-12-14T02:45:08;94749.19;;;1.98;100.00
31873;BME280;22407;42.820;23.374;2023-12-14T02:47:34;94732.63;;;1.96;100.00
31873;BME280;22407;42.820;23.374;2023-12-14T02:49:59;94740.88;;;2.00;100.00
31873;BME280;22407;42.820;23.374;2023-12-14T02:52:25;94735.78;;;2.08;100.00
31873;BME280;22407;42.820;23.374;2023-12-14T02:54:51;94739.97;;;2.24;100.00
31873;BME280;22407;42.820;23.374;2023-12-14T02:57:16;94729.44;;;1.99;100.00
31873;BME280;22407;42.820;23.374;2023-12-14T02:59:42;94739.88;;;1.91;100.00
31873;BME280;22407;42.820;23.374;2023-12-14T03:02:07;94746.59;;;1.83;100.00
31873;BME280;22407;42.820;23.374;2023-12-14T03:04:33;94746.59;;;1.78;100.00
31873;BME280;22407;42.820;23.374;2023-12-14T03:06:58;94753.78;;;1.83;100.00
31873;BME280;22407;42.820;23.374;2023-12-14T03:09:28;94758.25;;;1.97;100.00
31873;BME280;22407;42.820;23.374;2023-12-14T03:11:54;94734.88;;;2.23;100.00
31873;BME280;22407;42.820;23.374;2023-12-14T03:14:20;94741.47;;;1.97;100.00
31873;BME280;22407;42.820;23.374;2023-12-14T03:16:45;94746.56;;;1.88;100.00
31873;BME280;22407;42.820;23.374;2023-12-14T03:19:10;94734.28;;;1.92;100.00
31873;BME280;22407;42.820;23.374;2023-12-14T03:21:36;94722.91;;;2.15;100.00
31873;BME280;22407;42.820;23.374;2023-12-14T03:24:02;94719.09;;;1.88;100.00
31873;BME280;22407;42.820;23.374;2023-12-14T03:26:27;94729.88;;;2.11;100.00
31873;BME280;22407;42.820;23.374;2023-12-14T03:28:53;94738.81;;;1.92;100.00
31873;BME280;22407;42.820;23.374;2023-12-14T03:31:18;94734.47;;;2.06;100.00
31873;BME280;22407;42.820;23.374;2023-12-14T03:33:44;94731.31;;;1.94;100.00
31873;BME280;22407;42.820;23.374;2023-12-14T03:36:09;94725.19;;;1.93;100.00
31873;BME280;22407;42.820;23.374;2023-12-14T03:38:35;94734.88;;;2.23;100.00
31873;BME280;22407;42.820;23.374;2023-12-14T03:41:01;94725.72;;;2.34;99.71
31873;BME280;22407;42.820;23.374;2023-12-14T03:43:26;94722.44;;;2.08;99.78
31873;BME280;22407;42.820;23.374;2023-12-14T03:45:52;94727.41;;;1.81;100.00
31873;BME280;22407;42.820;23.374;2023-12-14T03:48:17;94717.97;;;1.99;100.00
31873;BME280;22407;42.820;23.374;2023-12-14T03:50:43;94708.66;;;1.91;100.00
31873;BME280;22407;42.820;23.374;2023-12-14T03:53:08;94725.88;;;2.14;99.67
31873;BME280;22407;42.820;23.374;2023-12-14T03:55:34;94730.00;;;1.91;99.93
31873;BME280;22407;42.820;23.374;2023-12-14T03:58:00;94718.53;;;1.91;100.00
31873;BME280;22407;42.820;23.374;2023-12-14T04:00:26;94718.59;;;1.81;100.00
31873;BME280;22407;42.820;23.374;2023-12-14T04:02:51;94716.13;;;1.94;100.00
31873;BME280;22407;42.820;23.374;2023-12-14T04:05:17;94707.97;;;1.71;100.00
31873;BME280;22407;42.820;23.374;2023-12-14T04:07:43;94730.84;;;1.87;100.00
31873;BME280;22407;42.820;23.374;2023-12-14T04:10:10;94724.69;;;1.86;100.00
31873;BME280;22407;42.820;23.374;2023-12-14T04:12:36;94725.41;;;2.02;100.00
31873;BME280;22407;42.820;23.374;2023-12-14T04:15:03;94730.22;;;2.00;100.00
31873;BME280;22407;42.820;23.374;2023-12-14T04:17:30;94733.69;;;2.00;100.00
31873;BME280;22407;42.820;23.374;2023-12-14T04:19:55;94733.41;;;2.02;100.00
31873;BME280;22407;42.820;23.374;2023-12-14T04:22:21;94738.59;;;1.78;100.00
31873;BME280;22407;42.820;23.374;2023-12-14T04:24:46;94735.66;;;1.80;100.00
31873;BME280;22407;42.820;23.374;2023-12-14T04:27:12;94729.78;;;1.88;100.00
31873;BME280;22407;42.820;23.374;2023-12-14T04:29:37;94712.28;;;1.62;100.00
31873;BME280;22407;42.820;23.374;2023-12-14T04:32:04;94725.09;;;1.60;100.00
31873;BME280;22407;42.820;23.374;2023-12-14T04:34:32;94704.31;;;1.57;100.00
31873;BME280;22407;42.820;23.374;2023-12-14T04:36:58;94714.94;;;1.62;100.00
31873;BME280;22407;42.820;23.374;2023-12-14T04:39:24;94725.03;;;1.70;100.00
31873;BME280;22407;42.820;23.374;2023-12-14T04:41:50;94704.75;;;1.74;100.00
31873;BME280;22407;42.820;23.374;2023-12-14T04:44:17;94704.81;;;1.64;100.00
31873;BME280;22407;42.820;23.374;2023-12-14T04:46:43;94710.06;;;1.79;100.00
31873;BME280;22407;42.820;23.374;2023-12-14T04:49:08;94713.19;;;1.96;100.00
31873;BME280;22407;42.820;23.374;2023-12-14T04:51:34;94708.00;;;1.66;100.00
31873;BME280;22407;42.820;23.374;2023-12-14T04:53:59;94710.56;;;1.81;100.00
31873;BME280;22407;42.820;23.374;2023-12-14T04:56:25;94717.78;;;1.80;100.00
31873;BME280;22407;42.820;23.374;2023-12-14T04:58:57;94728.31;;;2.05;100.00
31873;BME280;22407;42.820;23.374;2023-12-14T05:01:24;94721.09;;;1.58;100.00
31873;BME280;22407;42.820;23.374;2023-12-14T05:03:55;94709.13;;;1.50;100.00
31873;BME280;22407;42.820;23.374;2023-12-14T05:06:20;94722.94;;;1.62;100.00
31873;BME280;22407;42.820;23.374;2023-12-14T05:08:46;94727.00;;;1.55;100.00
31873;BME280;22407;42.820;23.374;2023-12-14T05:11:13;94716.59;;;1.53;100.00
31873;BME280;22407;42.820;23.374;2023-12-14T05:13:39;94717.09;;;1.60;100.00
31873;BME280;22407;42.820;23.374;2023-12-14T05:16:04;94716.31;;;1.60;100.00
31873;BME280;22407;42.820;23.374;2023-12-14T05:18:30;94725.66;;;1.57;100.00
31873;BME280;22407;42.820;23.374;2023-12-14T05:20:56;94734.22;;;1.44;100.00
31873;BME280;22407;42.820;23.374;2023-12-14T05:23:21;94741.69;;;1.47;100.00
31873;BME280;22407;42.820;23.374;2023-12-14T05:25:47;94741.56;;;1.77;100.00
31873;BME280;22407;42.820;23.374;2023-12-14T05:28:13;94735.22;;;1.63;100.00
31873;BME280;22407;42.820;23.374;2023-12-14T05:30:38;94744.88;;;1.49;100.00
31873;BME280;22407;42.820;23.374;2023-12-14T05:33:04;94738.50;;;1.45;100.00
31873;BME280;22407;42.820;23.374;2023-12-14T05:35:29;94744.88;;;1.49;100.00
31873;BME280;22407;42.820;23.374;2023-12-14T05:37:55;94738.44;;;1.55;100.00
31873;BME280;22407;42.820;23.374;2023-12-14T05:40:20;94751.84;;;1.30;100.00
31873;BME280;22407;42.820;23.374;2023-12-14T05:42:46;94742.53;;;1.28;100.00
31873;BME280;22407;42.820;23.374;2023-12-14T05:45:11;94750.78;;;1.36;100.00
31873;BME280;22407;42.820;23.374;2023-12-14T05:47:37;94757.47;;;1.34;100.00
31873;BME280;22407;42.820;23.374;2023-12-14T05:50:04;94740.63;;;1.43;100.00
31873;BME280;22407;42.820;23.374;2023-12-14T05:52:30;94767.84;;;1.35;100.00
31873;BME280;22407;42.820;23.374;2023-12-14T05:54:56;94763.56;;;1.44;100.00
31873;BME280;22407;42.820;23.374;2023-12-14T05:57:21;94774.16;;;1.64;100.00
31873;BME280;22407;42.820;23.374;2023-12-14T05:59:47;94777.66;;;1.50;100.00
31873;BME280;22407;42.820;23.374;2023-12-14T06:02:12;94779.97;;;1.76;100.00
31873;BME280;22407;42.820;23.374;2023-12-14T06:04:38;94773.69;;;1.42;100.00
31873;BME280;22407;42.820;23.374;2023-12-14T06:07:04;94781.19;;;1.35;100.00
31873;BME280;22407;42.820;23.374;2023-12-14T06:09:29;94778.41;;;1.60;100.00
31873;BME280;22407;42.820;23.374;2023-12-14T06:12:02;94752.31;;;1.52;100.00
31873;BME280;22407;42.820;23.374;2023-12-14T06:14:29;94758.47;;;1.48;100.00
31873;BME280;22407;42.820;23.374;2023-12-14T06:16:55;94776.38;;;1.32;100.00
31873;BME280;22407;42.820;23.374;2023-12-14T06:19:20;94773.72;;;1.37;100.00
31873;BME280;22407;42.820;23.374;2023-12-14T06:21:47;94774.19;;;1.59;100.00
31873;BME280;22407;42.820;23.374;2023-12-14T06:24:12;94776.84;;;1.54;100.00
31873;BME280;22407;42.820;23.374;2023-12-14T06:26:41;94770.44;;;1.55;100.00
31873;BME280;22407;42.820;23.374;2023-12-14T06:29:09;94777.84;;;1.73;100.00
31873;BME280;22407;42.820;23.374;2023-12-14T06:31:35;94781.91;;;1.61;100.00
31873;BME280;22407;42.820;23.374;2023-12-14T06:34:00;94779.34;;;1.94;100.00
31873;BME280;22407;42.820;23.374;2023-12-14T06:36:30;94782.66;;;1.76;100.00
31873;BME280;22407;42.820;23.374;2023-12-14T06:38:56;94785.22;;;1.91;100.00
31873;BME280;22407;42.820;23.374;2023-12-14T06:41:22;94790.13;;;1.74;100.00
31873;BME280;22407;42.820;23.374;2023-12-14T06:43:49;94787.31;;;2.04;100.00
31873;BME280;22407;42.820;23.374;2023-12-14T06:46:14;94789.81;;;1.80;100.00
31873;BME280;22407;42.820;23.374;2023-12-14T06:48:40;94804.97;;;1.90;100.00
31873;BME280;22407;42.820;23.374;2023-12-14T06:51:06;94801.19;;;2.01;100.00
31873;BME280;22407;42.820;23.374;2023-12-14T06:53:31;94806.97;;;2.23;100.00
31873;BME280;22407;42.820;23.374;2023-12-14T06:55:57;94802.81;;;2.45;100.00
31873;BME280;22407;42.820;23.374;2023-12-14T06:58:23;94807.44;;;2.35;100.00
31873;BME280;22407;42.820;23.374;2023-12-14T07:00:48;94804.81;;;2.20;100.00
31873;BME280;22407;42.820;23.374;2023-12-14T07:03:14;94799.97;;;2.32;100.00
31873;BME280;22407;42.820;23.374;2023-12-14T07:05:39;94793.53;;;2.33;100.00
31873;BME280;22407;42.820;23.374;2023-12-14T07:08:05;94803.69;;;2.36;100.00
31873;BME280;22407;42.820;23.374;2023-12-14T07:10:31;94811.34;;;2.47;100.00
31873;BME280;22407;42.820;23.374;2023-12-14T07:12:56;94792.94;;;2.46;100.00
31873;BME280;22407;42.820;23.374;2023-12-14T07:15:22;94804.63;;;2.59;100.00
31873;BME280;22407;42.820;23.374;2023-12-14T07:17:48;94815.16;;;2.79;100.00
31873;BME280;22407;42.820;23.374;2023-12-14T07:20:13;94804.78;;;2.73;100.00
31873;BME280;22407;42.820;23.374;2023-12-14T07:22:39;94827.91;;;2.87;100.00
31873;BME280;22407;42.820;23.374;2023-12-14T07:25:05;94835.94;;;2.87;100.00
31873;BME280;22407;42.820;23.374;2023-12-14T07:27:30;94839.38;;;3.21;100.00
31873;BME280;22407;42.820;23.374;2023-12-14T07:29:56;94843.78;;;3.07;100.00
31873;BME280;22407;42.820;23.374;2023-12-14T07:32:21;94839.78;;;3.05;100.00
31873;BME280;22407;42.820;23.374;2023-12-14T07:34:47;94835.44;;;3.42;100.00
31873;BME280;22407;42.820;23.374;2023-12-14T07:37:13;94835.06;;;3.25;100.00
31873;BME280;22407;42.820;23.374;2023-12-14T07:39:39;94840.34;;;3.35;99.72
31873;BME280;22407;42.820;23.374;2023-12-14T07:42:04;94844.97;;;3.53;100.00
31873;BME280;22407;42.820;23.374;2023-12-14T07:44:31;94852.31;;;3.42;100.00
31873;BME280;22407;42.820;23.374;2023-12-14T07:46:59;94858.78;;;3.65;99.67
31873;BME280;22407;42.820;23.374;2023-12-14T07:49:24;94848.72;;;3.80;99.75
31873;BME280;22407;42.820;23.374;2023-12-14T07:51:50;94844.34;;;3.61;99.55
31873;BME280;22407;42.820;23.374;2023-12-14T07:54:16;94860.03;;;3.72;99.49
31873;BME280;22407;42.820;23.374;2023-12-14T07:56:47;94860.72;;;3.83;99.33
31873;BME280;22407;42.820;23.374;2023-12-14T07:59:12;94850.53;;;3.85;99.52
31873;BME280;22407;42.820;23.374;2023-12-14T08:01:38;94854.38;;;4.02;99.50
31873;BME280;22407;42.820;23.374;2023-12-14T08:04:04;94845.41;;;4.12;99.34
31873;BME280;22407;42.820;23.374;2023-12-14T08:06:29;94845.38;;;4.35;98.24
31873;BME280;22407;42.820;23.374;2023-12-14T08:08:55;94845.03;;;4.41;98.14
31873;BME280;22407;42.820;23.374;2023-12-14T08:11:23;94860.53;;;4.81;97.15
31873;BME280;22407;42.820;23.374;2023-12-14T08:13:49;94869.25;;;4.73;96.10
31873;BME280;22407;42.820;23.374;2023-12-14T08:16:35;94851.34;;;4.69;96.17
31873;BME280;22407;42.820;23.374;2023-12-14T08:19:01;94857.59;;;4.64;96.74
31873;BME280;22407;42.820;23.374;2023-12-14T08:21:26;94871.59;;;4.98;96.09
31873;BME280;22407;42.820;23.374;2023-12-14T08:23:52;94855.50;;;5.30;94.33
31873;BME280;22407;42.820;23.374;2023-12-14T08:26:17;94867.72;;;5.22;94.45
31873;BME280;22407;42.820;23.374;2023-12-14T08:28:43;94854.88;;;5.19;95.63
31873;BME280;22407;42.820;23.374;2023-12-14T08:31:09;94851.31;;;5.56;93.45
31873;BME280;22407;42.820;23.374;2023-12-14T08:33:36;94861.72;;;5.76;92.45
31873;BME280;22407;42.820;23.374;2023-12-14T08:36:02;94845.59;;;5.76;92.03
31873;BME280;22407;42.820;23.374;2023-12-14T08:38:28;94855.19;;;5.82;93.44
31873;BME280;22407;42.820;23.374;2023-12-14T08:40:53;94848.63;;;5.88;93.16
31873;BME280;22407;42.820;23.374;2023-12-14T08:43:19;94856.69;;;5.88;92.98
31873;BME280;22407;42.820;23.374;2023-12-14T08:45:44;94860.69;;;6.03;92.56
31873;BME280;22407;42.820;23.374;2023-12-14T08:48:10;94865.28;;;6.30;90.29
31873;BME280;22407;42.820;23.374;2023-12-14T08:50:35;94880.13;;;6.27;90.72
31873;BME280;22407;42.820;23.374;2023-12-14T08:53:01;94874.03;;;6.35;90.75
31873;BME280;22407;42.820;23.374;2023-12-14T08:55:27;94874.94;;;6.44;90.91
31873;BME280;22407;42.820;23.374;2023-12-14T08:57:53;94877.28;;;6.86;89.27
31873;BME280;22407;42.820;23.374;2023-12-14T09:00:19;94861.28;;;7.03;88.78
31873;BME280;22407;42.820;23.374;2023-12-14T09:02:45;94873.50;;;7.22;86.05
31873;BME280;22407;42.820;23.374;2023-12-14T09:05:14;94873.19;;;7.24;85.91
31873;BME280;22407;42.820;23.374;2023-12-14T09:07:41;94857.41;;;7.53;83.40
31873;BME280;22407;42.820;23.374;2023-12-14T09:10:07;94836.09;;;7.65;82.69
31873;BME280;22407;42.820;23.374;2023-12-14T09:12:33;94846.69;;;7.83;81.85
31873;BME280;22407;42.820;23.374;2023-12-14T09:15:02;94841.75;;;7.85;82.14
31873;BME280;22407;42.820;23.374;2023-12-14T09:17:28;94856.13;;;8.02;77.39
31873;BME280;22407;42.820;23.374;2023-12-14T09:20:02;94833.84;;;7.58;79.65
31873;BME280;22407;42.820;23.374;2023-12-14T09:22:30;94846.88;;;7.65;81.41
31873;BME280;22407;42.820;23.374;2023-12-14T09:24:56;94852.69;;;7.58;82.17
31873;BME280;22407;42.820;23.374;2023-12-14T09:27:23;94851.41;;;7.56;82.66
31873;BME280;22407;42.820;23.374;2023-12-14T09:29:49;94850.66;;;7.64;84.76
31873;BME280;22407;42.820;23.374;2023-12-14T09:32:14;94850.91;;;7.75;85.00
31873;BME280;22407;42.820;23.374;2023-12-14T09:34:40;94846.69;;;7.83;80.95
31873;BME280;22407;42.820;23.374;2023-12-14T09:37:05;94837.78;;;7.82;80.37
31873;BME280;22407;42.820;23.374;2023-12-14T09:39:31;94845.69;;;8.09;80.41
31873;BME280;22407;42.820;23.374;2023-12-14T09:42:04;94855.34;;;8.32;79.35
31873;BME280;22407;42.820;23.374;2023-12-14T09:44:30;94858.41;;;8.48;80.25
31873;BME280;22407;42.820;23.374;2023-12-14T09:46:58;94865.59;;;8.60;80.68
31873;BME280;22407;42.820;23.374;2023-12-14T09:49:26;94850.19;;;8.61;80.05
31873;BME280;22407;42.820;23.374;2023-12-14T09:51:57;94830.53;;;8.69;79.40
31873;BME280;22407;42.820;23.374;2023-12-14T09:54:23;94856.47;;;8.87;78.26
31873;BME280;22407;42.820;23.374;2023-12-14T09:56:49;94852.81;;;9.00;77.25
31873;BME280;22407;42.820;23.374;2023-12-14T09:59:15;94856.00;;;9.02;77.49
31873;BME280;22407;42.820;23.374;2023-12-14T10:01:41;94873.63;;;9.16;76.58
31873;BME280;22407;42.820;23.374;2023-12-14T10:04:10;94859.81;;;9.26;77.40
31873;BME280;22407;42.820;23.374;2023-12-14T10:06:38;94857.13;;;9.26;73.85
31873;BME280;22407;42.820;23.374;2023-12-14T10:09:03;94857.63;;;9.37;73.19
31873;BME280;22407;42.820;23.374;2023-12-14T10:11:30;94855.84;;;9.49;72.48
31873;BME280;22407;42.820;23.374;2023-12-14T10:13:56;94857.59;;;9.53;71.13
31873;BME280;22407;42.820;23.374;2023-12-14T10:16:32;94850.91;;;9.59;72.06
31873;BME280;22407;42.820;23.374;2023-12-14T10:18:59;94852.66;;;9.72;71.47
31873;BME280;22407;42.820;23.374;2023-12-14T10:21:26;94857.09;;;9.85;71.42
31873;BME280;22407;42.820;23.374;2023-12-14T10:23:55;94858.03;;;9.89;68.56
31873;BME280;22407;42.820;23.374;2023-12-14T10:26:22;94861.97;;;10.17;68.44
31873;BME280;22407;42.820;23.374;2023-12-14T10:28:50;94862.06;;;10.29;69.04
31873;BME280;22407;42.820;23.374;2023-12-14T10:31:20;94870.09;;;10.09;72.50
31873;BME280;22407;42.820;23.374;2023-12-14T10:33:47;94864.22;;;10.15;71.98
31873;BME280;22407;42.820;23.374;2023-12-14T10:36:13;94870.72;;;10.14;72.47
31873;BME280;22407;42.820;23.374;2023-12-14T10:38:43;94872.50;;;9.93;72.92
31873;BME280;22407;42.820;23.374;2023-12-14T10:41:09;94871.56;;;10.06;72.31
31873;BME280;22407;42.820;23.374;2023-12-14T10:43:39;94889.66;;;10.06;72.81
31873;BME280;22407;42.820;23.374;2023-12-14T10:46:07;94891.06;;;10.20;72.30
31873;BME280;22407;42.820;23.374;2023-12-14T10:48:36;94892.69;;;10.04;73.07
31873;BME280;22407;42.820;23.374;2023-12-14T10:51:06;94882.34;;;9.98;73.94
31873;BME280;22407;42.820;23.374;2023-12-14T10:53:34;94890.63;;;10.01;74.01
31873;BME280;22407;42.820;23.374;2023-12-14T10:56:01;94894.13;;;9.93;72.74
31873;BME280;22407;42.820;23.374;2023-12-14T10:58:51;94900.00;;;9.78;74.76
31873;BME280;22407;42.820;23.374;2023-12-14T11:01:20;94897.81;;;9.72;75.66
31873;BME280;22407;42.820;23.374;2023-12-14T11:03:47;94913.84;;;9.68;75.94
31873;BME280;22407;42.820;23.374;2023-12-14T11:06:31;94918.59;;;9.88;75.86
31873;BME280;22407;42.820;23.374;2023-12-14T11:09:17;94910.50;;;9.71;75.10
31873;BME280;22407;42.820;23.374;2023-12-14T11:14:19;94921.47;;;9.49;75.55
31873;BME280;22407;42.820;23.374;2023-12-14T11:16:47;94920.53;;;9.96;72.71
31873;BME280;22407;42.820;23.374;2023-12-14T11:24:23;94934.34;;;9.52;74.84
31873;BME280;22407;42.820;23.374;2023-12-14T11:26:49;94939.44;;;9.45;76.02
31873;BME280;22407;42.820;23.374;2023-12-14T11:29:16;94929.59;;;9.41;76.25
31873;BME280;22407;42.820;23.374;2023-12-14T11:31:42;94927.38;;;9.60;75.48
31873;BME280;22407;42.820;23.374;2023-12-14T11:34:07;94926.41;;;9.90;73.94
31873;BME280;22407;42.820;23.374;2023-12-14T11:36:33;94929.28;;;9.68;73.57
31873;BME280;22407;42.820;23.374;2023-12-14T11:38:58;94931.03;;;9.55;74.61
31873;BME280;22407;42.820;23.374;2023-12-14T11:41:24;94937.69;;;9.83;74.62
31873;BME280;22407;42.820;23.374;2023-12-14T11:43:54;94935.78;;;9.92;74.44
31873;BME280;22407;42.820;23.374;2023-12-14T11:46:20;94934.53;;;9.73;74.74
31873;BME280;22407;42.820;23.374;2023-12-14T11:48:46;94934.69;;;9.68;75.72
31873;BME280;22407;42.820;23.374;2023-12-14T11:51:14;94927.84;;;10.04;73.05
31873;BME280;22407;42.820;23.374;2023-12-14T11:53:40;94950.94;;;10.02;73.33
31873;BME280;22407;42.820;23.374;2023-12-14T11:56:06;94962.16;;;9.78;75.17
31873;BME280;22407;42.820;23.374;2023-12-14T11:58:32;94965.34;;;9.80;75.17
31873;BME280;22407;42.820;23.374;2023-12-14T12:01:17;94956.16;;;9.98;74.18
31873;BME280;22407;42.820;23.374;2023-12-14T12:03:43;94960.44;;;10.16;73.65
31873;BME280;22407;42.820;23.374;2023-12-14T12:06:20;94971.72;;;9.84;75.52
31873;BME280;22407;42.820;23.374;2023-12-14T12:08:46;94972.84;;;9.92;76.24
31873;BME280;22407;42.820;23.374;2023-12-14T12:11:16;94969.16;;;10.30;73.85
31873;BME280;22407;42.820;23.374;2023-12-14T12:13:42;94970.13;;;9.92;76.70
31873;BME280;22407;42.820;23.374;2023-12-14T12:16:07;94982.84;;;9.91;75.77
31873;BME280;22407;42.820;23.374;2023-12-14T12:18:33;94974.75;;;9.91;77.36
31873;BME280;22407;42.820;23.374;2023-12-14T12:20:58;94966.13;;;9.64;79.73
31873;BME280;22407;42.820;23.374;2023-12-14T12:23:29;94969.50;;;9.78;79.29
31873;BME280;22407;42.820;23.374;2023-12-14T12:25:55;94974.13;;;9.77;75.57
31873;BME280;22407;42.820;23.374;2023-12-14T12:28:21;94965.72;;;10.04;72.06
31873;BME280;22407;42.820;23.374;2023-12-14T12:30:47;94962.03;;;10.00;71.36
31873;BME280;22407;42.820;23.374;2023-12-14T12:33:13;94979.38;;;10.16;69.97
31873;BME280;22407;42.820;23.374;2023-12-14T12:35:39;94985.13;;;10.06;70.64
31873;BME280;22407;42.820;23.374;2023-12-14T12:38:05;94981.94;;;10.13;69.55
31873;BME280;22407;42.820;23.374;2023-12-14T12:40:30;94989.38;;;10.16;71.12
31873;BME280;22407;42.820;23.374;2023-12-14T12:42:58;94986.38;;;10.17;68.72
31873;BME280;22407;42.820;23.374;2023-12-14T12:45:24;94994.63;;;10.12;69.04
31873;BME280;22407;42.820;23.374;2023-12-14T12:47:53;94990.81;;;10.05;70.10
31873;BME280;22407;42.820;23.374;2023-12-14T12:50:18;94992.72;;;9.87;72.63
31873;BME280;22407;42.820;23.374;2023-12-14T12:52:44;94986.03;;;9.68;73.58
31873;BME280;22407;42.820;23.374;2023-12-14T12:55:14;94980.78;;;9.63;73.25
31873;BME280;22407;42.820;23.374;2023-12-14T12:57:39;94990.31;;;9.52;73.57
31873;BME280;22407;42.820;23.374;2023-12-14T13:00:07;95005.56;;;9.65;73.58
31873;BME280;22407;42.820;23.374;2023-12-14T13:02:40;94996.94;;;9.38;72.78